バルセロナ の空港の天気 - METARとTAF

バルセロナ・エル・プラット国際空港 ( LEBL / BCN ) - スペイン バルセロナ
飛行場実況気象(Metar)
観測時間06/03 09:00 CEST (06/03 07:00 UTC)
風向・風速南西 3m/s
視程10km以上
天気現象
少しの雲 雲底高度 610m
気温22℃
湿度78%
気圧1010hPa
METARLEBL 030700Z 23005KT 200V270 9999 FEW020 22/18 Q1010 NOSIG
過去の天気等 Google飛行場航空写真 Wunderground天気予報

過去48時間のMETAR

飛行場予報(TAF)
発表時間: 6/03 08:33 CEST (6/03 06:33 UTC)
予報対象時間: 3日8時 CEST ~ 4日8時 CEST
風向・風速北北西 3m/s
視程10km以上
少しの雲 雲底高度 610m
3日10時 CEST ~ 3日12時 CEST に徐々に
風向・風速南南西 5m/s
3日20時 CEST ~ 3日22時 CEST に徐々に
風向・風速不定 2m/s
3日14時 CEST ~ 4日8時 CEST に一時的に
少しの積乱雲 雲底高度 1220m
4日2時 CEST ~ 4日8時 CEST に 確率 40% で一時的に
視程4000m
天気現象雷雨
全天の4割程度の積乱雲 雲底高度 910m
全天の8割程度の雲 雲底高度 1220m
TAF AMD LEBL 030633Z 0306/0406 33005KT 9999 FEW020 TX25/0312Z TN17/0306Z
BECMG 0308/0310 21010KT
BECMG 0318/0320 VRB03KT
TEMPO 0312/0406 FEW040CB
PROB40 TEMPO 0400/0406 4000 TSRA SCT030CB BKN040